This is the latest recevied weather packets stored in our database for station/object W0DXV. If no packets are shown the sender has not sent any weather packets the latest 1 day(s).
| Time | Temp. | Humidity | Pressure | Rain* | Wind** | Luminosity | Snow |
|---|---|---|---|---|---|---|---|
| 1778066118 | 16.11° C | 79% | 1009.9 hPa | 0 mm | 0.45 m/s, 233° | 24 W/m² | - |
| 1778065815 | 16.11° C | 81% | 1009.8 hPa | 0 mm | 0.45 m/s, 243° | 22 W/m² | - |
| 1778065512 | 16.11° C | 81% | 1009.8 hPa | 0 mm | 0.45 m/s, 238° | 27 W/m² | - |
| 1778065209 | 16.11° C | 82% | 1009.5 hPa | 0 mm | 0 m/s | 26 W/m² | - |
| 1778064905 | 16.11° C | 82% | 1009.6 hPa | 0 mm | 0 m/s | 21 W/m² | - |
| 1778064603 | 15.56° C | 82% | 1009.2 hPa | 0 mm | 0 m/s | 21 W/m² | - |
| 1778064301 | 15.56° C | 82% | 1009.1 hPa | 0 mm | 0 m/s | 15 W/m² | - |
| 1778063999 | 15.56° C | 81% | 1009.3 hPa | 0 mm | 0 m/s | 8 W/m² | - |
| 1778063695 | 15.56° C | 82% | 1008.9 hPa | 0 mm | 0 m/s | 4 W/m² | - |
| 1778063392 | 15.56° C | 81% | 1009 hPa | 0 mm | 0 m/s | 3 W/m² | - |
| 1778063090 | 15.56° C | 81% | 1008.8 hPa | 0 mm | 0 m/s | 2 W/m² | - |
| 1778062787 | 15.56° C | 82% | 1008.9 hPa | 0 mm | 0 m/s | 1 W/m² | - |
| 1778062484 | 15.56° C | 81% | 1008.9 hPa | 0 mm | 0 m/s | 0 W/m² | - |
| 1778062181 | 15.56° C | 80% | 1009.2 hPa | 0 mm | 0 m/s | 0 W/m² | - |
| 1778061886 | 15.56° C | 82% | 1009.1 hPa | 0 mm | 0 m/s | 0 W/m² | - |
| 1778061577 | 16.11° C | 81% | 1008.8 hPa | 0 mm | 0 m/s | 0 W/m² | - |
| 1778061276 | 16.11° C | 79% | 1009.2 hPa | 0 mm | 0 m/s | 0 W/m² | - |
| 1778060971 | 16.11° C | 81% | 1008.9 hPa | 0 mm | 0 m/s | 0 W/m² | - |
| 1778060670 | 16.11° C | 80% | 1009.2 hPa | 0 mm | 0.45 m/s, 233° | 0 W/m² | - |
| 1778060367 | 16.67° C | 79% | 1009.2 hPa | 0 mm | 0.45 m/s, 260° | 0 W/m² | - |
| 1778060065 | 16.67° C | 78% | 1009.3 hPa | 0 mm | 0.45 m/s, 257° | 0 W/m² | - |
| 1778059763 | 16.67° C | 78% | 1009.1 hPa | 0 mm | 0 m/s | 0 W/m² | - |
| 1778059460 | 16.67° C | 79% | 1009.2 hPa | 0 mm | 0.45 m/s, 246° | 0 W/m² | - |
| 1778059156 | 16.67° C | 78% | 1009.3 hPa | 0 mm | 0 m/s | 0 W/m² | - |
| 1778058855 | 16.67° C | 77% | 1009.3 hPa | 0 mm | 0 m/s | 0 W/m² | - |
* Rain latest hour (hover to see other rain measurements)
** Current wind speed in m/s (hover to see current wind gust speed)